Airfield :
LOGIN :

Register | Disclaimer

   EN    FR    IT 

 










Legend :    VFR   Marginal VFR   IFR   Intensive IFR   Very Intensive IFR
Visi :
Ceiling :
>= 8 km
>= 3000ft
5 to 8 km
1000 to 3000 ft
1500m to 5 km
500 to 1000 ft
800 to 1500m
200 to 500 ft
< 800m
< 200 ft
Symbols :   Thunderstorms  Fog  Heavy snow  Heavy precipitations  Wind > 20 kt
SIGMETs :     Misc.  Thunderstorms  Icing  Turbulence  Mountain Waves  Volcanic Ashes






- Airport Elevation : 138 ft
- IATA code : BIO


LEBB - Bilbao

CURRENT METAR :
  • 280900Z 10004KT 080V140 9999 FEW003 11/11 Q1021 TEMPO 0800 BCFG

EXPIRED METARs :
  • 280853Z 10005KT 070V130 9999 FEW003 11/11 Q1021 TEMPO 0800 BCFG
  • 280830Z 09004KT 070V130 0800 R30/1300U R12/1000U BCFG VV001 10/10 Q1021 TEMPO 3000 BR
  • 280800Z 08005KT 0800 R30/1900N R12/1900U BCFG VV001 11/11 Q1021 TEMPO 3000 BR
  • 280730Z 11003KT 080V140 0700 R30/0650N R12/0650D BCFG VV001 10/10 Q1021 TEMPO 3000 BR
  • 280712Z 08005KT 0900 R30/0750D R12/P2000 BCFG VV001 10/10 Q1021 NOSIG
  • 280700Z 08006KT 9999 R30/1400N R12/P2000 FEW003 10/10 Q1021 NOSIG

TAF AMD TAF LEBB
Valid from the 28 at 07:00 until the 29 at 06:00 UTC


280727Z 2807/2906 VRB05KT 9999 FEW040 TX19/2814Z TN10/2906Z
TEMPO 2809/2812 24008KT
TEMPO 2817/2824 24009KT
TEMPO 2807/2809 3000 BCFG BKN010
TEMPO 2807/2809 0800 FG BKN002



MET'MAP, your aeronautical weather chart ! - Copyright ORBIFLY December 2007 - Disclaimer

ORBIFLY MET'MAP TEAM :

Programming & Development : Alexandra Zaïnal
Concept & original design : Baudouin d'Aumeries
Assistance for programming : Marc-Olivier Méhu
Technical & hardware support : Manuel Goepfert

Contact : metmap@orbifly.com




SOURCES & CREDITS :

   NOAA